sensor_id;sensor_type;location;lat;lon;timestamp;pressure;altitude;pressure_sealevel;temperature
69857;BMP280;57147;53.582;10.112;2022-07-24T00:03:30;101982.88;;;14.02
69857;BMP280;57147;53.582;10.112;2022-07-24T00:08:33;101965.97;;;13.88
69857;BMP280;57147;53.582;10.112;2022-07-24T00:13:34;101983.78;;;13.93
69857;BMP280;57147;53.582;10.112;2022-07-24T00:18:35;101953.44;;;13.84
69857;BMP280;57147;53.582;10.112;2022-07-24T00:23:38;101949.22;;;13.78
69857;BMP280;57147;53.582;10.112;2022-07-24T00:28:39;101952.19;;;13.76
69857;BMP280;57147;53.582;10.112;2022-07-24T00:33:40;101938.44;;;13.64
69857;BMP280;57147;53.582;10.112;2022-07-24T00:38:44;101947.41;;;13.73
69857;BMP280;57147;53.582;10.112;2022-07-24T00:44:00;101947.75;;;13.67
69857;BMP280;57147;53.582;10.112;2022-07-24T00:49:03;101949.00;;;13.74
69857;BMP280;57147;53.582;10.112;2022-07-24T00:54:08;101951.78;;;13.64
69857;BMP280;57147;53.582;10.112;2022-07-24T00:59:08;101963.53;;;13.63
69857;BMP280;57147;53.582;10.112;2022-07-24T01:04:09;101964.38;;;13.58
69857;BMP280;57147;53.582;10.112;2022-07-24T01:09:12;101963.84;;;13.56
69857;BMP280;57147;53.582;10.112;2022-07-24T01:14:14;101958.78;;;13.55
69857;BMP280;57147;53.582;10.112;2022-07-24T01:19:15;101947.91;;;13.51
69857;BMP280;57147;53.582;10.112;2022-07-24T01:24:21;101958.28;;;13.53
69857;BMP280;57147;53.582;10.112;2022-07-24T01:29:21;101957.06;;;13.45
69857;BMP280;57147;53.582;10.112;2022-07-24T01:34:22;101960.00;;;13.44
69857;BMP280;57147;53.582;10.112;2022-07-24T01:39:25;101957.16;;;13.35
69857;BMP280;57147;53.582;10.112;2022-07-24T01:44:26;101942.00;;;13.26
69857;BMP280;57147;53.582;10.112;2022-07-24T01:49:26;101940.66;;;13.28
69857;BMP280;57147;53.582;10.112;2022-07-24T01:54:29;101917.16;;;12.96
69857;BMP280;57147;53.582;10.112;2022-07-24T01:59:30;101943.13;;;13.19
69857;BMP280;57147;53.582;10.112;2022-07-24T02:04:31;101938.34;;;13.16
69857;BMP280;57147;53.582;10.112;2022-07-24T02:09:34;101941.56;;;13.18
69857;BMP280;57147;53.582;10.112;2022-07-24T02:14:35;101949.50;;;13.24
69857;BMP280;57147;53.582;10.112;2022-07-24T02:19:35;101949.22;;;13.25
69857;BMP280;57147;53.582;10.112;2022-07-24T02:24:39;101938.63;;;13.15
69857;BMP280;57147;53.582;10.112;2022-07-24T02:29:39;101938.97;;;13.03
69857;BMP280;57147;53.582;10.112;2022-07-24T02:34:40;101943.28;;;12.99
69857;BMP280;57147;53.582;10.112;2022-07-24T02:39:43;101943.53;;;13.03
69857;BMP280;57147;53.582;10.112;2022-07-24T02:44:44;101942.19;;;13.05
69857;BMP280;57147;53.582;10.112;2022-07-24T02:49:44;101960.88;;;13.00
69857;BMP280;57147;53.582;10.112;2022-07-24T02:54:47;101952.34;;;12.98
69857;BMP280;57147;53.582;10.112;2022-07-24T02:59:48;101961.69;;;12.96
69857;BMP280;57147;53.582;10.112;2022-07-24T03:04:49;101962.00;;;12.94
69857;BMP280;57147;53.582;10.112;2022-07-24T03:09:52;101957.75;;;12.88
69857;BMP280;57147;53.582;10.112;2022-07-24T03:14:53;101947.09;;;12.88
69857;BMP280;57147;53.582;10.112;2022-07-24T03:19:54;101952.97;;;12.85
69857;BMP280;57147;53.582;10.112;2022-07-24T03:24:57;101948.16;;;12.87
69857;BMP280;57147;53.582;10.112;2022-07-24T03:29:58;101949.22;;;12.86
69857;BMP280;57147;53.582;10.112;2022-07-24T03:34:58;101946.03;;;12.84
69857;BMP280;57147;53.582;10.112;2022-07-24T03:40:03;101943.03;;;12.96
69857;BMP280;57147;53.582;10.112;2022-07-24T03:45:05;101948.66;;;12.89
69857;BMP280;57147;53.582;10.112;2022-07-24T03:50:07;101945.94;;;12.99
69857;BMP280;57147;53.582;10.112;2022-07-24T03:55:10;101952.84;;;13.05
69857;BMP280;57147;53.582;10.112;2022-07-24T04:00:12;101949.34;;;13.10
69857;BMP280;57147;53.582;10.112;2022-07-24T04:05:13;101953.84;;;13.14
69857;BMP280;57147;53.582;10.112;2022-07-24T04:10:16;101942.66;;;13.12
69857;BMP280;57147;53.582;10.112;2022-07-24T04:15:17;101942.66;;;13.12
69857;BMP280;57147;53.582;10.112;2022-07-24T04:20:18;101944.22;;;13.18
69857;BMP280;57147;53.582;10.112;2022-07-24T04:25:21;101938.75;;;13.34
69857;BMP280;57147;53.582;10.112;2022-07-24T04:30:22;101948.06;;;13.36
69857;BMP280;57147;53.582;10.112;2022-07-24T04:35:22;101946.75;;;13.34
69857;BMP280;57147;53.582;10.112;2022-07-24T04:40:25;101926.44;;;13.38
69857;BMP280;57147;53.582;10.112;2022-07-24T04:45:26;101937.53;;;13.50
69857;BMP280;57147;53.582;10.112;2022-07-24T04:50:27;101934.72;;;13.60
69857;BMP280;57147;53.582;10.112;2022-07-24T04:55:30;101945.00;;;13.72
69857;BMP280;57147;53.582;10.112;2022-07-24T05:00:31;101943.09;;;13.77
69857;BMP280;57147;53.582;10.112;2022-07-24T05:05:31;101944.06;;;13.86
69857;BMP280;57147;53.582;10.112;2022-07-24T05:10:36;101924.25;;;13.92
69857;BMP280;57147;53.582;10.112;2022-07-24T05:15:37;101939.53;;;14.11
69857;BMP280;57147;53.582;10.112;2022-07-24T05:20:37;101935.94;;;14.20
69857;BMP280;57147;53.582;10.112;2022-07-24T05:25:40;101940.94;;;14.27
69857;BMP280;57147;53.582;10.112;2022-07-24T05:30:41;101944.09;;;14.29
69857;BMP280;57147;53.582;10.112;2022-07-24T05:35:45;101952.03;;;14.34
69857;BMP280;57147;53.582;10.112;2022-07-24T05:40:48;101943.81;;;14.49
69857;BMP280;57147;53.582;10.112;2022-07-24T05:45:49;101939.31;;;14.63
69857;BMP280;57147;53.582;10.112;2022-07-24T05:50:49;101934.91;;;14.72
69857;BMP280;57147;53.582;10.112;2022-07-24T05:55:52;101932.50;;;14.89
69857;BMP280;57147;53.582;10.112;2022-07-24T06:00:53;101922.66;;;15.04
69857;BMP280;57147;53.582;10.112;2022-07-24T06:05:54;101923.88;;;15.25
69857;BMP280;57147;53.582;10.112;2022-07-24T06:10:57;101931.72;;;15.49
69857;BMP280;57147;53.582;10.112;2022-07-24T06:15:58;101919.94;;;15.63
69857;BMP280;57147;53.582;10.112;2022-07-24T06:20:59;101924.59;;;15.71
69857;BMP280;57147;53.582;10.112;2022-07-24T06:26:02;101918.34;;;15.90
69857;BMP280;57147;53.582;10.112;2022-07-24T06:31:03;101914.75;;;16.08
69857;BMP280;57147;53.582;10.112;2022-07-24T06:36:04;101917.44;;;16.30
69857;BMP280;57147;53.582;10.112;2022-07-24T06:41:08;101917.34;;;16.57
69857;BMP280;57147;53.582;10.112;2022-07-24T06:46:08;101912.53;;;16.68
69857;BMP280;57147;53.582;10.112;2022-07-24T06:51:09;101905.41;;;16.63
69857;BMP280;57147;53.582;10.112;2022-07-24T06:56:12;101897.25;;;16.69
69857;BMP280;57147;53.582;10.112;2022-07-24T07:01:13;101889.41;;;16.81
69857;BMP280;57147;53.582;10.112;2022-07-24T07:06:14;101881.25;;;16.86
69857;BMP280;57147;53.582;10.112;2022-07-24T07:11:17;101884.00;;;17.03
69857;BMP280;57147;53.582;10.112;2022-07-24T07:16:18;101889.41;;;17.12
69857;BMP280;57147;53.582;10.112;2022-07-24T07:21:18;101898.81;;;17.31
69857;BMP280;57147;53.582;10.112;2022-07-24T07:26:21;101897.09;;;17.44
69857;BMP280;57147;53.582;10.112;2022-07-24T07:31:23;101898.38;;;17.55
69857;BMP280;57147;53.582;10.112;2022-07-24T07:36:24;101888.31;;;17.69
69857;BMP280;57147;53.582;10.112;2022-07-24T07:41:27;101890.41;;;17.81
69857;BMP280;57147;53.582;10.112;2022-07-24T07:46:28;101890.22;;;17.94
69857;BMP280;57147;53.582;10.112;2022-07-24T07:51:29;101883.56;;;18.09
69857;BMP280;57147;53.582;10.112;2022-07-24T07:56:32;101893.72;;;18.29
69857;BMP280;57147;53.582;10.112;2022-07-24T08:01:33;101892.41;;;18.53
69857;BMP280;57147;53.582;10.112;2022-07-24T08:06:34;101891.69;;;18.73
69857;BMP280;57147;53.582;10.112;2022-07-24T08:11:37;101885.34;;;18.86
69857;BMP280;57147;53.582;10.112;2022-07-24T08:16:38;101873.66;;;19.11
69857;BMP280;57147;53.582;10.112;2022-07-24T08:21:38;101874.25;;;19.25
69857;BMP280;57147;53.582;10.112;2022-07-24T08:26:42;101878.75;;;19.42
69857;BMP280;57147;53.582;10.112;2022-07-24T08:31:42;101876.03;;;19.63
69857;BMP280;57147;53.582;10.112;2022-07-24T08:36:43;101854.13;;;19.85
69857;BMP280;57147;53.582;10.112;2022-07-24T08:41:47;101859.28;;;20.11
69857;BMP280;57147;53.582;10.112;2022-07-24T08:46:49;101861.97;;;20.31
69857;BMP280;57147;53.582;10.112;2022-07-24T08:51:51;101862.84;;;20.60
69857;BMP280;57147;53.582;10.112;2022-07-24T08:56:54;101859.63;;;20.78
69857;BMP280;57147;53.582;10.112;2022-07-24T09:01:55;101844.66;;;20.93
69857;BMP280;57147;53.582;10.112;2022-07-24T09:06:56;101853.31;;;21.11
69857;BMP280;57147;53.582;10.112;2022-07-24T09:12:09;101856.25;;;21.18
69857;BMP280;57147;53.582;10.112;2022-07-24T09:17:11;101855.34;;;21.42
69857;BMP280;57147;53.582;10.112;2022-07-24T09:22:17;101846.69;;;21.76
69857;BMP280;57147;53.582;10.112;2022-07-24T09:27:20;101837.06;;;22.06
69857;BMP280;57147;53.582;10.112;2022-07-24T09:32:22;101832.69;;;22.17
69857;BMP280;57147;53.582;10.112;2022-07-24T09:37:26;101841.63;;;22.33
69857;BMP280;57147;53.582;10.112;2022-07-24T09:42:32;101838.72;;;22.73
69857;BMP280;57147;53.582;10.112;2022-07-24T09:47:34;101834.50;;;23.30
69857;BMP280;57147;53.582;10.112;2022-07-24T09:52:35;101835.16;;;23.65
69857;BMP280;57147;53.582;10.112;2022-07-24T09:57:40;101820.53;;;23.70
69857;BMP280;57147;53.582;10.112;2022-07-24T10:02:43;101829.47;;;23.70
69857;BMP280;57147;53.582;10.112;2022-07-24T10:07:47;101821.63;;;23.88
69857;BMP280;57147;53.582;10.112;2022-07-24T10:12:51;101812.91;;;24.24
69857;BMP280;57147;53.582;10.112;2022-07-24T10:18:12;101813.75;;;24.28
69857;BMP280;57147;53.582;10.112;2022-07-24T10:23:24;101812.63;;;24.56
69857;BMP280;57147;53.582;10.112;2022-07-24T10:28:40;101815.19;;;24.75
69857;BMP280;57147;53.582;10.112;2022-07-24T10:33:41;101803.03;;;24.95
69857;BMP280;57147;53.582;10.112;2022-07-24T10:38:47;101786.22;;;25.16
69857;BMP280;57147;53.582;10.112;2022-07-24T10:44:18;101776.41;;;25.48
69857;BMP280;57147;53.582;10.112;2022-07-24T10:49:42;101777.47;;;25.80
69857;BMP280;57147;53.582;10.112;2022-07-24T10:54:43;101776.63;;;26.27
69857;BMP280;57147;53.582;10.112;2022-07-24T10:59:47;101784.88;;;26.41
69857;BMP280;57147;53.582;10.112;2022-07-24T11:04:47;101779.47;;;26.55
69857;BMP280;57147;53.582;10.112;2022-07-24T11:10:10;101770.22;;;26.78
69857;BMP280;57147;53.582;10.112;2022-07-24T11:15:11;101764.84;;;26.99
69857;BMP280;57147;53.582;10.112;2022-07-24T11:20:13;101757.09;;;27.15
69857;BMP280;57147;53.582;10.112;2022-07-24T11:25:19;101753.09;;;26.81
69857;BMP280;57147;53.582;10.112;2022-07-24T11:30:20;101735.25;;;26.97
69857;BMP280;57147;53.582;10.112;2022-07-24T11:35:32;101734.09;;;27.34
69857;BMP280;57147;53.582;10.112;2022-07-24T11:40:36;101720.44;;;27.41
69857;BMP280;57147;53.582;10.112;2022-07-24T11:45:36;101718.13;;;27.39
69857;BMP280;57147;53.582;10.112;2022-07-24T11:50:37;101701.75;;;27.46
69857;BMP280;57147;53.582;10.112;2022-07-24T11:55:40;101697.81;;;27.76
69857;BMP280;57147;53.582;10.112;2022-07-24T12:00:41;101690.31;;;28.08
69857;BMP280;57147;53.582;10.112;2022-07-24T12:05:41;101675.78;;;28.25
69857;BMP280;57147;53.582;10.112;2022-07-24T12:10:45;101655.34;;;28.54
69857;BMP280;57147;53.582;10.112;2022-07-24T12:15:46;101666.44;;;28.84
69857;BMP280;57147;53.582;10.112;2022-07-24T12:20:47;101659.75;;;29.30
69857;BMP280;57147;53.582;10.112;2022-07-24T12:26:00;101657.63;;;29.48
69857;BMP280;57147;53.582;10.112;2022-07-24T12:31:10;101649.03;;;29.46
69857;BMP280;57147;53.582;10.112;2022-07-24T12:36:14;101630.72;;;29.73
69857;BMP280;57147;53.582;10.112;2022-07-24T12:41:20;101631.78;;;29.83
69857;BMP280;57147;53.582;10.112;2022-07-24T12:46:29;101620.38;;;29.88
69857;BMP280;57147;53.582;10.112;2022-07-24T12:51:47;101625.31;;;29.70
69857;BMP280;57147;53.582;10.112;2022-07-24T12:56:52;101624.03;;;30.04
69857;BMP280;57147;53.582;10.112;2022-07-24T13:01:54;101618.88;;;30.37
69857;BMP280;57147;53.582;10.112;2022-07-24T13:06:57;101619.78;;;30.30
69857;BMP280;57147;53.582;10.112;2022-07-24T13:17:31;101615.78;;;29.81
69857;BMP280;57147;53.582;10.112;2022-07-24T13:22:31;101607.81;;;29.60
69857;BMP280;57147;53.582;10.112;2022-07-24T13:27:33;101591.97;;;29.48
69857;BMP280;57147;53.582;10.112;2022-07-24T13:32:36;101586.03;;;29.83
69857;BMP280;57147;53.582;10.112;2022-07-24T13:37:36;101584.06;;;30.10
69857;BMP280;57147;53.582;10.112;2022-07-24T13:42:38;101589.94;;;29.82
69857;BMP280;57147;53.582;10.112;2022-07-24T13:47:41;101566.28;;;29.35
69857;BMP280;57147;53.582;10.112;2022-07-24T13:52:41;101566.63;;;29.71
69857;BMP280;57147;53.582;10.112;2022-07-24T13:57:42;101554.63;;;30.41
69857;BMP280;57147;53.582;10.112;2022-07-24T14:02:45;101548.53;;;31.52
69857;BMP280;57147;53.582;10.112;2022-07-24T14:07:46;101553.38;;;31.08
69857;BMP280;57147;53.582;10.112;2022-07-24T14:12:47;101549.69;;;31.34
69857;BMP280;57147;53.582;10.112;2022-07-24T14:17:50;101523.66;;;31.75
69857;BMP280;57147;53.582;10.112;2022-07-24T14:22:51;101536.19;;;32.24
69857;BMP280;57147;53.582;10.112;2022-07-24T14:27:52;101520.31;;;32.32
69857;BMP280;57147;53.582;10.112;2022-07-24T14:32:55;101520.41;;;31.80
69857;BMP280;57147;53.582;10.112;2022-07-24T14:37:56;101515.97;;;32.02
69857;BMP280;57147;53.582;10.112;2022-07-24T14:42:57;101498.78;;;31.98
69857;BMP280;57147;53.582;10.112;2022-07-24T14:48:00;101502.41;;;31.79
69857;BMP280;57147;53.582;10.112;2022-07-24T14:53:01;101497.72;;;32.40
69857;BMP280;57147;53.582;10.112;2022-07-24T14:58:02;101490.94;;;32.29
69857;BMP280;57147;53.582;10.112;2022-07-24T15:03:05;101476.06;;;32.26
69857;BMP280;57147;53.582;10.112;2022-07-24T15:08:06;101457.56;;;31.98
69857;BMP280;57147;53.582;10.112;2022-07-24T15:13:06;101471.63;;;32.16
69857;BMP280;57147;53.582;10.112;2022-07-24T15:18:09;101466.63;;;32.27
69857;BMP280;57147;53.582;10.112;2022-07-24T15:23:10;101463.28;;;32.90
69857;BMP280;57147;53.582;10.112;2022-07-24T15:28:11;101447.44;;;32.81
69857;BMP280;57147;53.582;10.112;2022-07-24T15:33:14;101452.69;;;32.76
69857;BMP280;57147;53.582;10.112;2022-07-24T15:38:14;101448.25;;;32.24
69857;BMP280;57147;53.582;10.112;2022-07-24T15:43:15;101448.56;;;32.42
69857;BMP280;57147;53.582;10.112;2022-07-24T15:48:18;101452.91;;;32.11
69857;BMP280;57147;53.582;10.112;2022-07-24T15:53:19;101451.50;;;31.74
69857;BMP280;57147;53.582;10.112;2022-07-24T15:58:20;101449.22;;;32.18
69857;BMP280;57147;53.582;10.112;2022-07-24T16:03:23;101434.75;;;32.01
69857;BMP280;57147;53.582;10.112;2022-07-24T16:08:23;101432.84;;;30.62
69857;BMP280;57147;53.582;10.112;2022-07-24T16:13:24;101426.13;;;31.02
69857;BMP280;57147;53.582;10.112;2022-07-24T16:18:28;101436.94;;;31.09
69857;BMP280;57147;53.582;10.112;2022-07-24T16:23:28;101424.34;;;30.76
69857;BMP280;57147;53.582;10.112;2022-07-24T16:28:29;101426.47;;;31.04
69857;BMP280;57147;53.582;10.112;2022-07-24T16:33:32;101416.41;;;31.33
69857;BMP280;57147;53.582;10.112;2022-07-24T16:38:33;101407.84;;;31.64
69857;BMP280;57147;53.582;10.112;2022-07-24T16:43:34;101401.63;;;31.92
69857;BMP280;57147;53.582;10.112;2022-07-24T16:48:37;101410.94;;;31.50
69857;BMP280;57147;53.582;10.112;2022-07-24T16:53:37;101407.13;;;31.76
69857;BMP280;57147;53.582;10.112;2022-07-24T16:58:38;101386.09;;;31.85
69857;BMP280;57147;53.582;10.112;2022-07-24T17:03:42;101396.88;;;31.31
69857;BMP280;57147;53.582;10.112;2022-07-24T17:08:42;101395.78;;;31.09
69857;BMP280;57147;53.582;10.112;2022-07-24T17:13:43;101392.59;;;31.47
69857;BMP280;57147;53.582;10.112;2022-07-24T17:18:46;101399.94;;;31.33
69857;BMP280;57147;53.582;10.112;2022-07-24T17:23:47;101385.34;;;31.20
69857;BMP280;57147;53.582;10.112;2022-07-24T17:28:50;101390.16;;;31.16
69857;BMP280;57147;53.582;10.112;2022-07-24T17:33:53;101395.13;;;31.05
69857;BMP280;57147;53.582;10.112;2022-07-24T17:38:53;101390.63;;;30.95
69857;BMP280;57147;53.582;10.112;2022-07-24T17:43:54;101397.09;;;30.85
69857;BMP280;57147;53.582;10.112;2022-07-24T17:48:57;101391.88;;;31.10
69857;BMP280;57147;53.582;10.112;2022-07-24T17:53:58;101387.41;;;31.32
69857;BMP280;57147;53.582;10.112;2022-07-24T17:58:59;101389.75;;;31.34
69857;BMP280;57147;53.582;10.112;2022-07-24T18:04:02;101384.19;;;31.38
69857;BMP280;57147;53.582;10.112;2022-07-24T18:09:03;101381.44;;;31.21
69857;BMP280;57147;53.582;10.112;2022-07-24T18:14:04;101382.63;;;31.20
69857;BMP280;57147;53.582;10.112;2022-07-24T18:19:07;101385.00;;;31.02
69857;BMP280;57147;53.582;10.112;2022-07-24T18:24:08;101384.59;;;30.84
69857;BMP280;57147;53.582;10.112;2022-07-24T18:29:09;101374.94;;;30.60
69857;BMP280;57147;53.582;10.112;2022-07-24T18:34:12;101381.31;;;30.34
69857;BMP280;57147;53.582;10.112;2022-07-24T18:39:13;101377.50;;;30.08
69857;BMP280;57147;53.582;10.112;2022-07-24T18:44:14;101369.25;;;29.88
69857;BMP280;57147;53.582;10.112;2022-07-24T18:49:17;101380.78;;;29.53
69857;BMP280;57147;53.582;10.112;2022-07-24T18:54:18;101379.63;;;29.24
69857;BMP280;57147;53.582;10.112;2022-07-24T18:59:18;101381.75;;;28.86
69857;BMP280;57147;53.582;10.112;2022-07-24T19:04:21;101381.00;;;28.48
69857;BMP280;57147;53.582;10.112;2022-07-24T19:09:22;101383.28;;;28.16
69857;BMP280;57147;53.582;10.112;2022-07-24T19:14:23;101382.72;;;27.91
69857;BMP280;57147;53.582;10.112;2022-07-24T19:19:26;101385.25;;;27.64
69857;BMP280;57147;53.582;10.112;2022-07-24T19:24:27;101390.84;;;27.39
69857;BMP280;57147;53.582;10.112;2022-07-24T19:29:27;101389.03;;;27.15
69857;BMP280;57147;53.582;10.112;2022-07-24T19:34:31;101389.53;;;26.89
69857;BMP280;57147;53.582;10.112;2022-07-24T19:39:32;101395.41;;;26.70
69857;BMP280;57147;53.582;10.112;2022-07-24T19:44:33;101401.25;;;26.47
69857;BMP280;57147;53.582;10.112;2022-07-24T19:49:36;101398.16;;;26.27
69857;BMP280;57147;53.582;10.112;2022-07-24T19:54:36;101395.84;;;26.08
69857;BMP280;57147;53.582;10.112;2022-07-24T19:59:37;101391.53;;;25.93
69857;BMP280;57147;53.582;10.112;2022-07-24T20:04:41;101383.34;;;25.72
69857;BMP280;57147;53.582;10.112;2022-07-24T20:09:42;101393.44;;;25.61
69857;BMP280;57147;53.582;10.112;2022-07-24T20:14:43;101392.59;;;25.42
69857;BMP280;57147;53.582;10.112;2022-07-24T20:19:46;101386.72;;;25.30
69857;BMP280;57147;53.582;10.112;2022-07-24T20:24:46;101388.63;;;25.19
69857;BMP280;57147;53.582;10.112;2022-07-24T20:29:47;101385.44;;;25.03
69857;BMP280;57147;53.582;10.112;2022-07-24T20:34:50;101390.03;;;24.91
69857;BMP280;57147;53.582;10.112;2022-07-24T20:39:51;101389.91;;;24.74
69857;BMP280;57147;53.582;10.112;2022-07-24T20:44:52;101390.63;;;24.64
69857;BMP280;57147;53.582;10.112;2022-07-24T20:49:55;101390.19;;;24.55
69857;BMP280;57147;53.582;10.112;2022-07-24T20:54:55;101387.31;;;24.37
69857;BMP280;57147;53.582;10.112;2022-07-24T20:59:56;101380.22;;;24.22
69857;BMP280;57147;53.582;10.112;2022-07-24T21:04:59;101374.69;;;24.11
69857;BMP280;57147;53.582;10.112;2022-07-24T21:10:00;101372.28;;;24.03
69857;BMP280;57147;53.582;10.112;2022-07-24T21:15:01;101367.53;;;23.96
69857;BMP280;57147;53.582;10.112;2022-07-24T21:20:05;101365.94;;;23.88
69857;BMP280;57147;53.582;10.112;2022-07-24T21:25:06;101367.34;;;23.71
69857;BMP280;57147;53.582;10.112;2022-07-24T21:30:08;101367.63;;;23.63
69857;BMP280;57147;53.582;10.112;2022-07-24T21:35:11;101368.28;;;23.53
69857;BMP280;57147;53.582;10.112;2022-07-24T21:40:12;101360.88;;;23.50
69857;BMP280;57147;53.582;10.112;2022-07-24T21:45:12;101365.81;;;23.41
69857;BMP280;57147;53.582;10.112;2022-07-24T21:50:16;101360.59;;;23.28
69857;BMP280;57147;53.582;10.112;2022-07-24T21:55:16;101359.44;;;23.00
69857;BMP280;57147;53.582;10.112;2022-07-24T22:00:18;101355.72;;;22.81
69857;BMP280;57147;53.582;10.112;2022-07-24T22:05:21;101348.16;;;22.68
69857;BMP280;57147;53.582;10.112;2022-07-24T22:10:22;101349.91;;;22.57
69857;BMP280;57147;53.582;10.112;2022-07-24T22:15:22;101347.47;;;22.48
69857;BMP280;57147;53.582;10.112;2022-07-24T22:20:26;101341.09;;;22.37
69857;BMP280;57147;53.582;10.112;2022-07-24T22:25:26;101345.66;;;22.33
69857;BMP280;57147;53.582;10.112;2022-07-24T22:30:27;101332.09;;;22.29
69857;BMP280;57147;53.582;10.112;2022-07-24T22:35:31;101324.97;;;22.21
69857;BMP280;57147;53.582;10.112;2022-07-24T22:40:32;101320.06;;;22.04
69857;BMP280;57147;53.582;10.112;2022-07-24T22:45:33;101312.97;;;21.96
69857;BMP280;57147;53.582;10.112;2022-07-24T22:50:37;101306.72;;;21.92
69857;BMP280;57147;53.582;10.112;2022-07-24T22:55:37;101297.25;;;21.82
69857;BMP280;57147;53.582;10.112;2022-07-24T23:00:38;101288.59;;;21.73
69857;BMP280;57147;53.582;10.112;2022-07-24T23:05:42;101284.19;;;21.65
69857;BMP280;57147;53.582;10.112;2022-07-24T23:10:42;101280.97;;;21.60
69857;BMP280;57147;53.582;10.112;2022-07-24T23:15:43;101269.50;;;21.63
69857;BMP280;57147;53.582;10.112;2022-07-24T23:20:46;101265.22;;;21.62
69857;BMP280;57147;53.582;10.112;2022-07-24T23:25:47;101255.91;;;21.59
69857;BMP280;57147;53.582;10.112;2022-07-24T23:30:47;101244.19;;;21.52
69857;BMP280;57147;53.582;10.112;2022-07-24T23:35:51;101238.66;;;21.45
69857;BMP280;57147;53.582;10.112;2022-07-24T23:40:51;101223.44;;;21.37
69857;BMP280;57147;53.582;10.112;2022-07-24T23:45:52;101215.25;;;21.33
69857;BMP280;57147;53.582;10.112;2022-07-24T23:50:55;101212.00;;;21.24
69857;BMP280;57147;53.582;10.112;2022-07-24T23:55:56;101214.75;;;21.27
